sensor_id;sensor_type;location;lat;lon;timestamp;P1;durP1;ratioP1;P2;durP2;ratioP2
3689;SDS011;1861;50.240;8.596;2022-11-12T00:01:13;3.30;;;2.50;;
3689;SDS011;1861;50.240;8.596;2022-11-12T00:03:59;5.00;;;2.67;;
3689;SDS011;1861;50.240;8.596;2022-11-12T00:06:46;3.93;;;2.40;;
3689;SDS011;1861;50.240;8.596;2022-11-12T00:09:34;2.53;;;2.30;;
3689;SDS011;1861;50.240;8.596;2022-11-12T00:12:21;3.40;;;2.30;;
3689;SDS011;1861;50.240;8.596;2022-11-12T00:15:08;2.70;;;2.37;;
3689;SDS011;1861;50.240;8.596;2022-11-12T00:17:55;3.53;;;2.63;;
3689;SDS011;1861;50.240;8.596;2022-11-12T00:20:42;3.80;;;3.10;;
3689;SDS011;1861;50.240;8.596;2022-11-12T00:23:29;7.63;;;2.67;;
3689;SDS011;1861;50.240;8.596;2022-11-12T00:26:17;10.40;;;2.67;;
3689;SDS011;1861;50.240;8.596;2022-11-12T00:29:04;3.97;;;2.90;;
3689;SDS011;1861;50.240;8.596;2022-11-12T00:31:50;3.10;;;2.80;;
3689;SDS011;1861;50.240;8.596;2022-11-12T00:34:37;3.40;;;3.00;;
3689;SDS011;1861;50.240;8.596;2022-11-12T00:37:24;3.67;;;2.77;;
3689;SDS011;1861;50.240;8.596;2022-11-12T00:40:11;2.53;;;2.33;;
3689;SDS011;1861;50.240;8.596;2022-11-12T00:42:59;3.67;;;2.90;;
3689;SDS011;1861;50.240;8.596;2022-11-12T00:45:45;2.30;;;2.10;;
3689;SDS011;1861;50.240;8.596;2022-11-12T00:48:32;5.13;;;2.20;;
3689;SDS011;1861;50.240;8.596;2022-11-12T00:51:19;3.27;;;2.30;;
3689;SDS011;1861;50.240;8.596;2022-11-12T00:54:06;2.70;;;2.00;;
3689;SDS011;1861;50.240;8.596;2022-11-12T00:56:53;4.23;;;2.40;;
3689;SDS011;1861;50.240;8.596;2022-11-12T00:59:40;4.90;;;2.70;;
3689;SDS011;1861;50.240;8.596;2022-11-12T01:02:27;3.40;;;2.67;;
3689;SDS011;1861;50.240;8.596;2022-11-12T01:05:14;2.93;;;2.50;;
3689;SDS011;1861;50.240;8.596;2022-11-12T01:08:01;3.30;;;2.50;;
3689;SDS011;1861;50.240;8.596;2022-11-12T01:10:47;3.23;;;2.73;;
3689;SDS011;1861;50.240;8.596;2022-11-12T01:13:34;3.73;;;2.93;;
3689;SDS011;1861;50.240;8.596;2022-11-12T01:16:30;3.00;;;2.67;;
3689;SDS011;1861;50.240;8.596;2022-11-12T01:19:20;3.57;;;2.57;;
3689;SDS011;1861;50.240;8.596;2022-11-12T01:22:07;4.13;;;2.10;;
3689;SDS011;1861;50.240;8.596;2022-11-12T01:24:54;3.60;;;2.50;;
3689;SDS011;1861;50.240;8.596;2022-11-12T01:27:41;2.47;;;2.27;;
3689;SDS011;1861;50.240;8.596;2022-11-12T01:30:27;2.03;;;1.83;;
3689;SDS011;1861;50.240;8.596;2022-11-12T01:33:15;2.43;;;2.23;;
3689;SDS011;1861;50.240;8.596;2022-11-12T01:36:02;2.27;;;1.97;;
3689;SDS011;1861;50.240;8.596;2022-11-12T01:38:50;4.13;;;2.07;;
3689;SDS011;1861;50.240;8.596;2022-11-12T01:41:37;2.30;;;2.07;;
3689;SDS011;1861;50.240;8.596;2022-11-12T01:44:28;2.10;;;1.90;;
3689;SDS011;1861;50.240;8.596;2022-11-12T01:47:17;2.00;;;1.80;;
3689;SDS011;1861;50.240;8.596;2022-11-12T01:50:11;2.83;;;2.00;;
3689;SDS011;1861;50.240;8.596;2022-11-12T01:53:02;2.10;;;1.90;;
3689;SDS011;1861;50.240;8.596;2022-11-12T01:55:53;3.90;;;1.80;;
3689;SDS011;1861;50.240;8.596;2022-11-12T01:58:41;2.50;;;2.07;;
3689;SDS011;1861;50.240;8.596;2022-11-12T02:01:29;2.50;;;1.80;;
3689;SDS011;1861;50.240;8.596;2022-11-12T02:04:16;3.53;;;2.23;;
3689;SDS011;1861;50.240;8.596;2022-11-12T02:07:04;1.80;;;1.67;;
3689;SDS011;1861;50.240;8.596;2022-11-12T02:09:52;1.67;;;1.57;;
3689;SDS011;1861;50.240;8.596;2022-11-12T02:12:40;2.20;;;2.00;;
3689;SDS011;1861;50.240;8.596;2022-11-12T02:15:44;2.10;;;1.90;;
3689;SDS011;1861;50.240;8.596;2022-11-12T02:18:31;1.83;;;1.70;;
3689;SDS011;1861;50.240;8.596;2022-11-12T02:21:20;1.87;;;1.77;;
3689;SDS011;1861;50.240;8.596;2022-11-12T02:27:18;2.10;;;1.43;;
3689;SDS011;1861;50.240;8.596;2022-11-12T02:30:05;1.63;;;1.53;;
3689;SDS011;1861;50.240;8.596;2022-11-12T02:32:53;1.47;;;1.37;;
3689;SDS011;1861;50.240;8.596;2022-11-12T02:35:40;1.70;;;1.60;;
3689;SDS011;1861;50.240;8.596;2022-11-12T02:38:28;2.47;;;1.90;;
3689;SDS011;1861;50.240;8.596;2022-11-12T02:41:15;3.50;;;2.03;;
3689;SDS011;1861;50.240;8.596;2022-11-12T02:44:01;3.47;;;2.30;;
3689;SDS011;1861;50.240;8.596;2022-11-12T02:46:48;2.47;;;2.27;;
3689;SDS011;1861;50.240;8.596;2022-11-12T02:49:35;6.63;;;2.10;;
3689;SDS011;1861;50.240;8.596;2022-11-12T02:52:22;3.30;;;2.47;;
3689;SDS011;1861;50.240;8.596;2022-11-12T02:55:11;3.13;;;2.23;;
3689;SDS011;1861;50.240;8.596;2022-11-12T02:57:58;3.73;;;2.30;;
3689;SDS011;1861;50.240;8.596;2022-11-12T03:00:44;3.63;;;2.53;;
3689;SDS011;1861;50.240;8.596;2022-11-12T03:03:32;2.00;;;1.90;;
3689;SDS011;1861;50.240;8.596;2022-11-12T03:06:19;3.83;;;2.47;;
3689;SDS011;1861;50.240;8.596;2022-11-12T03:09:05;3.17;;;2.40;;
3689;SDS011;1861;50.240;8.596;2022-11-12T03:11:53;2.50;;;2.00;;
3689;SDS011;1861;50.240;8.596;2022-11-12T03:14:40;2.83;;;2.10;;
3689;SDS011;1861;50.240;8.596;2022-11-12T03:17:27;2.00;;;1.90;;
3689;SDS011;1861;50.240;8.596;2022-11-12T03:20:14;3.17;;;2.10;;
3689;SDS011;1861;50.240;8.596;2022-11-12T03:23:01;3.90;;;2.43;;
3689;SDS011;1861;50.240;8.596;2022-11-12T03:25:49;2.63;;;2.10;;
3689;SDS011;1861;50.240;8.596;2022-11-12T03:28:37;3.23;;;2.60;;
3689;SDS011;1861;50.240;8.596;2022-11-12T03:31:25;4.60;;;2.83;;
3689;SDS011;1861;50.240;8.596;2022-11-12T03:34:11;3.30;;;2.30;;
3689;SDS011;1861;50.240;8.596;2022-11-12T03:36:58;3.90;;;2.77;;
3689;SDS011;1861;50.240;8.596;2022-11-12T03:39:45;2.53;;;2.00;;
3689;SDS011;1861;50.240;8.596;2022-11-12T03:42:31;4.00;;;2.37;;
3689;SDS011;1861;50.240;8.596;2022-11-12T03:45:20;2.43;;;2.07;;
3689;SDS011;1861;50.240;8.596;2022-11-12T03:48:08;2.43;;;2.00;;
3689;SDS011;1861;50.240;8.596;2022-11-12T03:50:56;3.17;;;2.40;;
3689;SDS011;1861;50.240;8.596;2022-11-12T03:53:43;2.60;;;2.10;;
3689;SDS011;1861;50.240;8.596;2022-11-12T03:56:29;4.07;;;2.83;;
3689;SDS011;1861;50.240;8.596;2022-11-12T03:59:16;5.00;;;2.57;;
3689;SDS011;1861;50.240;8.596;2022-11-12T04:02:04;5.37;;;3.00;;
3689;SDS011;1861;50.240;8.596;2022-11-12T04:04:51;5.50;;;3.27;;
3689;SDS011;1861;50.240;8.596;2022-11-12T04:07:56;3.83;;;2.80;;
3689;SDS011;1861;50.240;8.596;2022-11-12T04:11:01;5.00;;;3.27;;
3689;SDS011;1861;50.240;8.596;2022-11-12T04:13:50;4.97;;;2.90;;
3689;SDS011;1861;50.240;8.596;2022-11-12T04:16:37;3.73;;;2.80;;
3689;SDS011;1861;50.240;8.596;2022-11-12T04:19:43;4.20;;;2.90;;
3689;SDS011;1861;50.240;8.596;2022-11-12T04:22:46;6.30;;;3.73;;
3689;SDS011;1861;50.240;8.596;2022-11-12T04:25:33;6.73;;;3.23;;
3689;SDS011;1861;50.240;8.596;2022-11-12T04:28:38;8.50;;;4.20;;
3689;SDS011;1861;50.240;8.596;2022-11-12T04:31:44;4.50;;;2.97;;
3689;SDS011;1861;50.240;8.596;2022-11-12T04:34:30;6.13;;;3.70;;
3689;SDS011;1861;50.240;8.596;2022-11-12T04:37:19;3.77;;;3.00;;
3689;SDS011;1861;50.240;8.596;2022-11-12T04:40:08;5.17;;;3.70;;
3689;SDS011;1861;50.240;8.596;2022-11-12T04:43:10;5.00;;;2.87;;
3689;SDS011;1861;50.240;8.596;2022-11-12T04:46:16;5.60;;;3.47;;
3689;SDS011;1861;50.240;8.596;2022-11-12T04:49:03;4.73;;;3.17;;
3689;SDS011;1861;50.240;8.596;2022-11-12T04:51:50;4.40;;;2.93;;
3689;SDS011;1861;50.240;8.596;2022-11-12T04:54:53;4.93;;;3.37;;
3689;SDS011;1861;50.240;8.596;2022-11-12T04:57:40;4.47;;;3.10;;
3689;SDS011;1861;50.240;8.596;2022-11-12T05:00:27;4.23;;;3.23;;
3689;SDS011;1861;50.240;8.596;2022-11-12T05:03:13;4.50;;;3.17;;
3689;SDS011;1861;50.240;8.596;2022-11-12T05:06:00;5.30;;;3.00;;
3689;SDS011;1861;50.240;8.596;2022-11-12T05:08:47;4.20;;;3.13;;
3689;SDS011;1861;50.240;8.596;2022-11-12T05:11:35;3.60;;;2.77;;
3689;SDS011;1861;50.240;8.596;2022-11-12T05:14:22;6.50;;;3.30;;
3689;SDS011;1861;50.240;8.596;2022-11-12T05:17:09;5.03;;;3.27;;
3689;SDS011;1861;50.240;8.596;2022-11-12T05:19:56;3.20;;;2.80;;
3689;SDS011;1861;50.240;8.596;2022-11-12T05:22:43;3.80;;;2.80;;
3689;SDS011;1861;50.240;8.596;2022-11-12T05:25:49;3.57;;;2.97;;
3689;SDS011;1861;50.240;8.596;2022-11-12T05:28:37;3.07;;;2.63;;
3689;SDS011;1861;50.240;8.596;2022-11-12T05:31:24;5.07;;;3.10;;
3689;SDS011;1861;50.240;8.596;2022-11-12T05:34:10;3.33;;;2.70;;
3689;SDS011;1861;50.240;8.596;2022-11-12T05:37:03;3.00;;;2.60;;
3689;SDS011;1861;50.240;8.596;2022-11-12T05:39:51;4.20;;;3.00;;
3689;SDS011;1861;50.240;8.596;2022-11-12T05:42:38;3.70;;;2.80;;
3689;SDS011;1861;50.240;8.596;2022-11-12T05:45:26;3.93;;;2.20;;
3689;SDS011;1861;50.240;8.596;2022-11-12T05:48:13;3.60;;;2.80;;
3689;SDS011;1861;50.240;8.596;2022-11-12T05:51:07;3.70;;;2.80;;
3689;SDS011;1861;50.240;8.596;2022-11-12T05:53:58;2.60;;;2.07;;
3689;SDS011;1861;50.240;8.596;2022-11-12T05:56:45;3.90;;;2.80;;
3689;SDS011;1861;50.240;8.596;2022-11-12T05:59:31;3.40;;;2.40;;
3689;SDS011;1861;50.240;8.596;2022-11-12T06:02:20;3.93;;;2.80;;
3689;SDS011;1861;50.240;8.596;2022-11-12T06:05:07;4.47;;;2.90;;
3689;SDS011;1861;50.240;8.596;2022-11-12T06:07:54;4.10;;;2.27;;
3689;SDS011;1861;50.240;8.596;2022-11-12T06:10:41;3.20;;;2.50;;
3689;SDS011;1861;50.240;8.596;2022-11-12T06:13:28;3.50;;;2.60;;
3689;SDS011;1861;50.240;8.596;2022-11-12T06:16:14;3.27;;;2.80;;
3689;SDS011;1861;50.240;8.596;2022-11-12T06:19:02;3.83;;;2.67;;
3689;SDS011;1861;50.240;8.596;2022-11-12T06:21:50;2.73;;;2.30;;
3689;SDS011;1861;50.240;8.596;2022-11-12T06:24:37;3.23;;;2.67;;
3689;SDS011;1861;50.240;8.596;2022-11-12T06:27:24;3.23;;;2.90;;
3689;SDS011;1861;50.240;8.596;2022-11-12T06:30:11;4.40;;;3.07;;
3689;SDS011;1861;50.240;8.596;2022-11-12T06:32:58;2.90;;;2.40;;
3689;SDS011;1861;50.240;8.596;2022-11-12T06:35:46;4.80;;;3.40;;
3689;SDS011;1861;50.240;8.596;2022-11-12T06:38:35;4.00;;;2.60;;
3689;SDS011;1861;50.240;8.596;2022-11-12T06:41:24;5.43;;;2.43;;
3689;SDS011;1861;50.240;8.596;2022-11-12T06:44:10;4.30;;;3.13;;
3689;SDS011;1861;50.240;8.596;2022-11-12T06:47:05;3.53;;;2.37;;
3689;SDS011;1861;50.240;8.596;2022-11-12T06:49:51;2.63;;;1.93;;
3689;SDS011;1861;50.240;8.596;2022-11-12T06:52:39;2.73;;;2.30;;
3689;SDS011;1861;50.240;8.596;2022-11-12T06:55:26;3.10;;;2.13;;
3689;SDS011;1861;50.240;8.596;2022-11-12T06:58:13;3.10;;;1.97;;
3689;SDS011;1861;50.240;8.596;2022-11-12T07:01:06;2.37;;;2.13;;
3689;SDS011;1861;50.240;8.596;2022-11-12T07:03:56;2.73;;;2.30;;
3689;SDS011;1861;50.240;8.596;2022-11-12T07:06:43;1.87;;;1.77;;
3689;SDS011;1861;50.240;8.596;2022-11-12T07:09:31;2.80;;;2.07;;
3689;SDS011;1861;50.240;8.596;2022-11-12T07:12:18;4.43;;;2.30;;
3689;SDS011;1861;50.240;8.596;2022-11-12T07:15:05;1.97;;;1.80;;
3689;SDS011;1861;50.240;8.596;2022-11-12T07:17:52;2.40;;;2.17;;
3689;SDS011;1861;50.240;8.596;2022-11-12T07:20:38;2.17;;;1.90;;
3689;SDS011;1861;50.240;8.596;2022-11-12T07:23:26;2.27;;;2.07;;
3689;SDS011;1861;50.240;8.596;2022-11-12T07:26:15;2.87;;;1.90;;
3689;SDS011;1861;50.240;8.596;2022-11-12T07:29:04;3.20;;;2.20;;
3689;SDS011;1861;50.240;8.596;2022-11-12T07:31:51;2.80;;;2.30;;
3689;SDS011;1861;50.240;8.596;2022-11-12T07:34:38;2.70;;;1.97;;
3689;SDS011;1861;50.240;8.596;2022-11-12T07:37:25;3.00;;;2.30;;
3689;SDS011;1861;50.240;8.596;2022-11-12T07:40:12;3.43;;;2.13;;
3689;SDS011;1861;50.240;8.596;2022-11-12T07:43:00;3.43;;;2.50;;
3689;SDS011;1861;50.240;8.596;2022-11-12T07:45:47;4.77;;;2.70;;
3689;SDS011;1861;50.240;8.596;2022-11-12T07:48:33;4.60;;;2.93;;
3689;SDS011;1861;50.240;8.596;2022-11-12T07:51:20;7.10;;;4.00;;
3689;SDS011;1861;50.240;8.596;2022-11-12T07:54:08;6.80;;;4.50;;
3689;SDS011;1861;50.240;8.596;2022-11-12T07:56:55;7.53;;;3.87;;
3689;SDS011;1861;50.240;8.596;2022-11-12T07:59:43;7.67;;;4.40;;
3689;SDS011;1861;50.240;8.596;2022-11-12T08:02:30;5.50;;;3.63;;
3689;SDS011;1861;50.240;8.596;2022-11-12T08:05:17;5.43;;;3.80;;
3689;SDS011;1861;50.240;8.596;2022-11-12T08:08:05;4.37;;;2.97;;
3689;SDS011;1861;50.240;8.596;2022-11-12T08:10:53;4.50;;;2.97;;
3689;SDS011;1861;50.240;8.596;2022-11-12T08:13:40;4.63;;;3.27;;
3689;SDS011;1861;50.240;8.596;2022-11-12T08:16:28;8.33;;;4.67;;
3689;SDS011;1861;50.240;8.596;2022-11-12T08:19:15;5.30;;;3.40;;
3689;SDS011;1861;50.240;8.596;2022-11-12T08:22:02;7.60;;;4.20;;
3689;SDS011;1861;50.240;8.596;2022-11-12T08:24:49;7.90;;;3.70;;
3689;SDS011;1861;50.240;8.596;2022-11-12T08:27:36;5.23;;;3.80;;
3689;SDS011;1861;50.240;8.596;2022-11-12T08:30:23;5.97;;;4.13;;
3689;SDS011;1861;50.240;8.596;2022-11-12T08:33:11;5.53;;;3.80;;
3689;SDS011;1861;50.240;8.596;2022-11-12T08:36:00;7.90;;;3.87;;
3689;SDS011;1861;50.240;8.596;2022-11-12T08:38:49;5.67;;;4.00;;
3689;SDS011;1861;50.240;8.596;2022-11-12T08:41:38;5.93;;;4.20;;
3689;SDS011;1861;50.240;8.596;2022-11-12T08:44:24;6.63;;;4.43;;
3689;SDS011;1861;50.240;8.596;2022-11-12T08:47:11;4.77;;;3.87;;
3689;SDS011;1861;50.240;8.596;2022-11-12T08:49:59;9.83;;;4.83;;
3689;SDS011;1861;50.240;8.596;2022-11-12T08:52:46;6.60;;;4.50;;
3689;SDS011;1861;50.240;8.596;2022-11-12T08:55:34;5.90;;;4.10;;
3689;SDS011;1861;50.240;8.596;2022-11-12T08:58:21;5.63;;;3.97;;
3689;SDS011;1861;50.240;8.596;2022-11-12T09:01:10;6.00;;;4.10;;
3689;SDS011;1861;50.240;8.596;2022-11-12T09:03:57;8.90;;;4.37;;
3689;SDS011;1861;50.240;8.596;2022-11-12T09:06:45;5.97;;;4.30;;
3689;SDS011;1861;50.240;8.596;2022-11-12T09:09:38;6.20;;;4.90;;
3689;SDS011;1861;50.240;8.596;2022-11-12T09:12:24;7.20;;;4.87;;
3689;SDS011;1861;50.240;8.596;2022-11-12T09:15:11;5.10;;;3.57;;
3689;SDS011;1861;50.240;8.596;2022-11-12T09:18:18;7.30;;;4.80;;
3689;SDS011;1861;50.240;8.596;2022-11-12T09:21:06;6.93;;;4.97;;
3689;SDS011;1861;50.240;8.596;2022-11-12T09:23:56;5.40;;;3.70;;
3689;SDS011;1861;50.240;8.596;2022-11-12T09:26:43;6.87;;;4.50;;
3689;SDS011;1861;50.240;8.596;2022-11-12T09:29:30;11.30;;;4.97;;
3689;SDS011;1861;50.240;8.596;2022-11-12T09:32:16;6.43;;;4.43;;
3689;SDS011;1861;50.240;8.596;2022-11-12T09:35:03;7.50;;;5.60;;
3689;SDS011;1861;50.240;8.596;2022-11-12T09:37:51;8.87;;;4.73;;
3689;SDS011;1861;50.240;8.596;2022-11-12T09:40:40;7.70;;;4.63;;
3689;SDS011;1861;50.240;8.596;2022-11-12T09:43:46;8.80;;;5.20;;
3689;SDS011;1861;50.240;8.596;2022-11-12T09:46:36;12.10;;;5.23;;
3689;SDS011;1861;50.240;8.596;2022-11-12T09:49:28;9.30;;;5.50;;
3689;SDS011;1861;50.240;8.596;2022-11-12T09:52:18;10.27;;;5.63;;
3689;SDS011;1861;50.240;8.596;2022-11-12T09:55:11;10.63;;;6.47;;
3689;SDS011;1861;50.240;8.596;2022-11-12T09:58:16;8.33;;;5.23;;
3689;SDS011;1861;50.240;8.596;2022-11-12T10:01:06;8.43;;;5.67;;
3689;SDS011;1861;50.240;8.596;2022-11-12T10:04:02;8.80;;;5.77;;
3689;SDS011;1861;50.240;8.596;2022-11-12T10:07:02;8.93;;;5.80;;
3689;SDS011;1861;50.240;8.596;2022-11-12T10:09:58;10.53;;;6.60;;
3689;SDS011;1861;50.240;8.596;2022-11-12T10:12:52;9.37;;;5.20;;
3689;SDS011;1861;50.240;8.596;2022-11-12T10:15:55;12.97;;;6.40;;
3689;SDS011;1861;50.240;8.596;2022-11-12T10:19:14;9.23;;;5.60;;
3689;SDS011;1861;50.240;8.596;2022-11-12T10:22:15;9.30;;;6.03;;
3689;SDS011;1861;50.240;8.596;2022-11-12T10:25:13;10.00;;;5.90;;
3689;SDS011;1861;50.240;8.596;2022-11-12T10:28:05;11.17;;;6.40;;
3689;SDS011;1861;50.240;8.596;2022-11-12T10:31:01;9.70;;;6.40;;
3689;SDS011;1861;50.240;8.596;2022-11-12T10:33:57;11.17;;;6.60;;
3689;SDS011;1861;50.240;8.596;2022-11-12T10:37:00;11.27;;;6.50;;
3689;SDS011;1861;50.240;8.596;2022-11-12T10:39:50;10.10;;;6.37;;
3689;SDS011;1861;50.240;8.596;2022-11-12T10:42:37;11.13;;;6.97;;
3689;SDS011;1861;50.240;8.596;2022-11-12T10:45:41;11.77;;;7.07;;
3689;SDS011;1861;50.240;8.596;2022-11-12T10:48:30;11.13;;;6.83;;
3689;SDS011;1861;50.240;8.596;2022-11-12T10:51:21;12.23;;;7.83;;
3689;SDS011;1861;50.240;8.596;2022-11-12T10:54:24;11.33;;;7.20;;
3689;SDS011;1861;50.240;8.596;2022-11-12T10:57:21;11.33;;;6.63;;
3689;SDS011;1861;50.240;8.596;2022-11-12T11:00:19;12.77;;;7.03;;
3689;SDS011;1861;50.240;8.596;2022-11-12T11:03:13;12.80;;;7.17;;
3689;SDS011;1861;50.240;8.596;2022-11-12T11:06:04;16.50;;;8.77;;
3689;SDS011;1861;50.240;8.596;2022-11-12T11:08:53;14.50;;;8.60;;
3689;SDS011;1861;50.240;8.596;2022-11-12T11:11:59;12.60;;;7.70;;
3689;SDS011;1861;50.240;8.596;2022-11-12T11:14:46;13.67;;;8.13;;
3689;SDS011;1861;50.240;8.596;2022-11-12T11:17:51;12.43;;;8.00;;
3689;SDS011;1861;50.240;8.596;2022-11-12T11:20:40;12.13;;;7.13;;
3689;SDS011;1861;50.240;8.596;2022-11-12T11:23:35;14.07;;;7.77;;
3689;SDS011;1861;50.240;8.596;2022-11-12T11:26:28;14.40;;;8.80;;
3689;SDS011;1861;50.240;8.596;2022-11-12T11:29:22;13.23;;;8.17;;
3689;SDS011;1861;50.240;8.596;2022-11-12T11:32:30;14.83;;;8.10;;
3689;SDS011;1861;50.240;8.596;2022-11-12T11:35:27;13.97;;;8.70;;
3689;SDS011;1861;50.240;8.596;2022-11-12T11:38:20;14.00;;;7.73;;
3689;SDS011;1861;50.240;8.596;2022-11-12T11:41:19;10.73;;;7.50;;
3689;SDS011;1861;50.240;8.596;2022-11-12T11:44:20;12.50;;;8.20;;
3689;SDS011;1861;50.240;8.596;2022-11-12T11:47:19;12.97;;;7.77;;
3689;SDS011;1861;50.240;8.596;2022-11-12T11:50:35;12.00;;;7.57;;
3689;SDS011;1861;50.240;8.596;2022-11-12T11:53:28;13.40;;;8.20;;
3689;SDS011;1861;50.240;8.596;2022-11-12T11:56:23;12.43;;;7.20;;
3689;SDS011;1861;50.240;8.596;2022-11-12T11:59:19;12.03;;;7.63;;
3689;SDS011;1861;50.240;8.596;2022-11-12T12:02:23;11.10;;;7.20;;
3689;SDS011;1861;50.240;8.596;2022-11-12T12:05:26;14.27;;;8.53;;
3689;SDS011;1861;50.240;8.596;2022-11-12T12:08:20;16.23;;;7.77;;
3689;SDS011;1861;50.240;8.596;2022-11-12T12:11:14;10.40;;;6.30;;
3689;SDS011;1861;50.240;8.596;2022-11-12T12:14:17;12.50;;;8.10;;
3689;SDS011;1861;50.240;8.596;2022-11-12T12:17:17;13.63;;;7.90;;
3689;SDS011;1861;50.240;8.596;2022-11-12T12:20:19;10.53;;;7.47;;
3689;SDS011;1861;50.240;8.596;2022-11-12T12:23:12;13.13;;;7.90;;
3689;SDS011;1861;50.240;8.596;2022-11-12T12:26:11;17.47;;;10.57;;
3689;SDS011;1861;50.240;8.596;2022-11-12T12:29:03;22.57;;;11.33;;
3689;SDS011;1861;50.240;8.596;2022-11-12T12:32:04;12.20;;;7.87;;
3689;SDS011;1861;50.240;8.596;2022-11-12T12:34:57;13.40;;;8.93;;
3689;SDS011;1861;50.240;8.596;2022-11-12T12:37:52;16.90;;;9.00;;
3689;SDS011;1861;50.240;8.596;2022-11-12T12:40:46;14.97;;;9.13;;
3689;SDS011;1861;50.240;8.596;2022-11-12T12:43:43;11.87;;;8.07;;
3689;SDS011;1861;50.240;8.596;2022-11-12T12:46:36;17.87;;;9.20;;
3689;SDS011;1861;50.240;8.596;2022-11-12T12:49:29;14.83;;;8.60;;
3689;SDS011;1861;50.240;8.596;2022-11-12T12:52:19;16.87;;;10.23;;
3689;SDS011;1861;50.240;8.596;2022-11-12T12:55:14;13.33;;;8.10;;
3689;SDS011;1861;50.240;8.596;2022-11-12T12:58:24;14.60;;;9.37;;
3689;SDS011;1861;50.240;8.596;2022-11-12T13:01:27;15.30;;;9.57;;
3689;SDS011;1861;50.240;8.596;2022-11-12T13:04:15;16.40;;;9.50;;
3689;SDS011;1861;50.240;8.596;2022-11-12T13:07:03;12.57;;;8.53;;
3689;SDS011;1861;50.240;8.596;2022-11-12T13:13:22;15.63;;;8.83;;
3689;SDS011;1861;50.240;8.596;2022-11-12T13:19:38;15.33;;;8.53;;
3689;SDS011;1861;50.240;8.596;2022-11-12T13:22:44;14.53;;;8.73;;
3689;SDS011;1861;50.240;8.596;2022-11-12T13:25:35;14.23;;;8.90;;
3689;SDS011;1861;50.240;8.596;2022-11-12T13:28:23;13.57;;;8.63;;
3689;SDS011;1861;50.240;8.596;2022-11-12T13:34:18;19.20;;;9.27;;
3689;SDS011;1861;50.240;8.596;2022-11-12T13:37:11;23.13;;;8.00;;
3689;SDS011;1861;50.240;8.596;2022-11-12T13:40:08;13.43;;;8.13;;
3689;SDS011;1861;50.240;8.596;2022-11-12T13:43:01;18.87;;;9.20;;
3689;SDS011;1861;50.240;8.596;2022-11-12T13:45:51;12.27;;;7.87;;
3689;SDS011;1861;50.240;8.596;2022-11-12T13:48:42;13.67;;;8.77;;
3689;SDS011;1861;50.240;8.596;2022-11-12T13:51:36;15.90;;;9.10;;
3689;SDS011;1861;50.240;8.596;2022-11-12T13:54:34;15.33;;;9.70;;
3689;SDS011;1861;50.240;8.596;2022-11-12T13:57:28;13.30;;;8.80;;
3689;SDS011;1861;50.240;8.596;2022-11-12T14:00:24;17.30;;;9.30;;
3689;SDS011;1861;50.240;8.596;2022-11-12T14:03:14;13.77;;;8.50;;
3689;SDS011;1861;50.240;8.596;2022-11-12T14:06:11;20.37;;;10.53;;
3689;SDS011;1861;50.240;8.596;2022-11-12T14:12:22;15.00;;;9.50;;
3689;SDS011;1861;50.240;8.596;2022-11-12T14:15:29;12.20;;;9.13;;
3689;SDS011;1861;50.240;8.596;2022-11-12T14:18:35;13.93;;;9.23;;
3689;SDS011;1861;50.240;8.596;2022-11-12T14:21:32;14.43;;;9.40;;
3689;SDS011;1861;50.240;8.596;2022-11-12T14:24:19;12.53;;;9.30;;
3689;SDS011;1861;50.240;8.596;2022-11-12T14:27:19;15.97;;;9.57;;
3689;SDS011;1861;50.240;8.596;2022-11-12T14:30:12;17.37;;;10.07;;
3689;SDS011;1861;50.240;8.596;2022-11-12T14:33:06;16.30;;;11.07;;
3689;SDS011;1861;50.240;8.596;2022-11-12T14:35:57;16.53;;;10.43;;
3689;SDS011;1861;50.240;8.596;2022-11-12T14:38:47;17.10;;;10.33;;
3689;SDS011;1861;50.240;8.596;2022-11-12T14:41:37;16.60;;;9.90;;
3689;SDS011;1861;50.240;8.596;2022-11-12T14:44:27;15.03;;;10.00;;
3689;SDS011;1861;50.240;8.596;2022-11-12T14:47:21;14.83;;;9.60;;
3689;SDS011;1861;50.240;8.596;2022-11-12T14:50:10;17.57;;;10.23;;
3689;SDS011;1861;50.240;8.596;2022-11-12T14:53:01;15.23;;;9.83;;
3689;SDS011;1861;50.240;8.596;2022-11-12T14:55:53;17.20;;;9.37;;
3689;SDS011;1861;50.240;8.596;2022-11-12T14:58:41;15.77;;;9.77;;
3689;SDS011;1861;50.240;8.596;2022-11-12T15:01:28;16.87;;;10.00;;
3689;SDS011;1861;50.240;8.596;2022-11-12T15:04:39;15.33;;;10.17;;
3689;SDS011;1861;50.240;8.596;2022-11-12T15:07:28;14.70;;;9.77;;
3689;SDS011;1861;50.240;8.596;2022-11-12T15:10:30;15.93;;;9.63;;
3689;SDS011;1861;50.240;8.596;2022-11-12T15:13:19;20.80;;;11.40;;
3689;SDS011;1861;50.240;8.596;2022-11-12T15:16:10;24.77;;;13.20;;
3689;SDS011;1861;50.240;8.596;2022-11-12T15:19:13;26.80;;;12.50;;
3689;SDS011;1861;50.240;8.596;2022-11-12T15:22:03;21.53;;;11.23;;
3689;SDS011;1861;50.240;8.596;2022-11-12T15:24:50;21.23;;;12.53;;
3689;SDS011;1861;50.240;8.596;2022-11-12T15:27:37;19.60;;;12.30;;
3689;SDS011;1861;50.240;8.596;2022-11-12T15:30:26;21.60;;;12.43;;
3689;SDS011;1861;50.240;8.596;2022-11-12T15:33:15;23.20;;;12.03;;
3689;SDS011;1861;50.240;8.596;2022-11-12T15:36:10;24.00;;;13.50;;
3689;SDS011;1861;50.240;8.596;2022-11-12T15:39:03;24.20;;;12.60;;
3689;SDS011;1861;50.240;8.596;2022-11-12T15:41:57;25.10;;;13.27;;
3689;SDS011;1861;50.240;8.596;2022-11-12T15:44:45;24.60;;;11.73;;
3689;SDS011;1861;50.240;8.596;2022-11-12T15:47:32;21.43;;;12.20;;
3689;SDS011;1861;50.240;8.596;2022-11-12T15:50:20;64.50;;;26.67;;
3689;SDS011;1861;50.240;8.596;2022-11-12T15:53:09;132.47;;;44.67;;
3689;SDS011;1861;50.240;8.596;2022-11-12T15:55:57;42.80;;;20.13;;
3689;SDS011;1861;50.240;8.596;2022-11-12T15:58:43;27.00;;;14.03;;
3689;SDS011;1861;50.240;8.596;2022-11-12T16:01:30;26.83;;;13.23;;
3689;SDS011;1861;50.240;8.596;2022-11-12T16:04:17;26.37;;;13.67;;
3689;SDS011;1861;50.240;8.596;2022-11-12T16:07:04;20.67;;;12.10;;
3689;SDS011;1861;50.240;8.596;2022-11-12T16:09:51;26.00;;;14.27;;
3689;SDS011;1861;50.240;8.596;2022-11-12T16:12:39;30.20;;;11.87;;
3689;SDS011;1861;50.240;8.596;2022-11-12T16:15:26;26.20;;;14.60;;
3689;SDS011;1861;50.240;8.596;2022-11-12T16:18:13;22.13;;;12.90;;
3689;SDS011;1861;50.240;8.596;2022-11-12T16:21:00;23.80;;;12.53;;
3689;SDS011;1861;50.240;8.596;2022-11-12T16:23:47;22.17;;;12.73;;
3689;SDS011;1861;50.240;8.596;2022-11-12T16:26:33;19.27;;;11.40;;
3689;SDS011;1861;50.240;8.596;2022-11-12T16:29:22;20.40;;;11.60;;
3689;SDS011;1861;50.240;8.596;2022-11-12T16:32:11;24.40;;;14.50;;
3689;SDS011;1861;50.240;8.596;2022-11-12T16:34:58;20.60;;;12.07;;
3689;SDS011;1861;50.240;8.596;2022-11-12T16:37:45;17.77;;;10.93;;
3689;SDS011;1861;50.240;8.596;2022-11-12T16:40:32;20.13;;;11.77;;
3689;SDS011;1861;50.240;8.596;2022-11-12T16:43:19;20.73;;;12.70;;
3689;SDS011;1861;50.240;8.596;2022-11-12T16:46:13;18.27;;;11.20;;
3689;SDS011;1861;50.240;8.596;2022-11-12T16:49:07;20.07;;;12.57;;
3689;SDS011;1861;50.240;8.596;2022-11-12T16:51:56;20.30;;;12.90;;
3689;SDS011;1861;50.240;8.596;2022-11-12T16:54:44;18.67;;;11.30;;
3689;SDS011;1861;50.240;8.596;2022-11-12T16:57:31;18.17;;;11.00;;
3689;SDS011;1861;50.240;8.596;2022-11-12T17:00:17;18.60;;;10.70;;
3689;SDS011;1861;50.240;8.596;2022-11-12T17:03:06;19.57;;;11.90;;
3689;SDS011;1861;50.240;8.596;2022-11-12T17:05:53;18.10;;;11.17;;
3689;SDS011;1861;50.240;8.596;2022-11-12T17:08:39;18.13;;;11.20;;
3689;SDS011;1861;50.240;8.596;2022-11-12T17:11:26;18.73;;;11.60;;
3689;SDS011;1861;50.240;8.596;2022-11-12T17:14:13;20.27;;;11.70;;
3689;SDS011;1861;50.240;8.596;2022-11-12T17:17:01;21.60;;;12.07;;
3689;SDS011;1861;50.240;8.596;2022-11-12T17:19:48;17.80;;;11.50;;
3689;SDS011;1861;50.240;8.596;2022-11-12T17:22:35;21.20;;;12.90;;
3689;SDS011;1861;50.240;8.596;2022-11-12T17:25:22;19.90;;;12.10;;
3689;SDS011;1861;50.240;8.596;2022-11-12T17:28:09;23.17;;;11.00;;
3689;SDS011;1861;50.240;8.596;2022-11-12T17:31:02;18.50;;;10.80;;
3689;SDS011;1861;50.240;8.596;2022-11-12T17:33:51;12.93;;;9.37;;
3689;SDS011;1861;50.240;8.596;2022-11-12T17:36:39;15.33;;;10.10;;
3689;SDS011;1861;50.240;8.596;2022-11-12T17:39:28;15.67;;;10.23;;
3689;SDS011;1861;50.240;8.596;2022-11-12T17:42:15;16.63;;;11.27;;
3689;SDS011;1861;50.240;8.596;2022-11-12T17:45:02;18.03;;;11.93;;
3689;SDS011;1861;50.240;8.596;2022-11-12T17:47:49;14.47;;;9.90;;